Dundee, New Jersey
Current Conditions -  °F | °C
As of 10:51 AM on Friday 21 Nov 2014 (Local Time) from KTEB Reporting Station
Clear Clear  
Wind Chill: 23°   Ceiling: Unl
Heat Index: 33°   Visibility: 10mi
Dew Point:   Wind: 16mph
Humidity: 37%   Direction: 290°WNW
Pressure: 30.29"   Gusts: 23mph
Location:  40.8575°N, 74.1285°W
Report Text: KTEB 211551Z 29014G20KT 10SM CLR 01/M13 A3029 RMK AO2 SLP255 T00061128
Loading
Personal Weather Stations






























Interactive Weather Map New forecast layout! Learn more

10-Day Weather Forecast

Advertisements
Track Severe Weather on mobile